sensor_id;sensor_type;location;lat;lon;timestamp;temperature;humidity
36690;DHT22;22676;51.120;3.702;2023-07-22T00:00:44;25.20;43.80
36690;DHT22;22676;51.120;3.702;2023-07-22T00:03:09;25.20;43.90
36690;DHT22;22676;51.120;3.702;2023-07-22T00:05:35;25.10;43.90
36690;DHT22;22676;51.120;3.702;2023-07-22T00:08:01;25.10;44.00
36690;DHT22;22676;51.120;3.702;2023-07-22T00:10:26;25.10;44.10
36690;DHT22;22676;51.120;3.702;2023-07-22T00:12:52;25.00;44.10
36690;DHT22;22676;51.120;3.702;2023-07-22T00:15:18;25.00;44.20
36690;DHT22;22676;51.120;3.702;2023-07-22T00:17:45;25.00;44.20
36690;DHT22;22676;51.120;3.702;2023-07-22T00:20:11;25.00;44.30
36690;DHT22;22676;51.120;3.702;2023-07-22T00:22:40;25.00;44.30
36690;DHT22;22676;51.120;3.702;2023-07-22T00:25:10;25.00;44.20
36690;DHT22;22676;51.120;3.702;2023-07-22T00:27:37;25.00;44.30
36690;DHT22;22676;51.120;3.702;2023-07-22T00:30:07;25.00;44.30
36690;DHT22;22676;51.120;3.702;2023-07-22T00:32:33;25.00;44.30
36690;DHT22;22676;51.120;3.702;2023-07-22T00:34:59;25.00;44.30
36690;DHT22;22676;51.120;3.702;2023-07-22T00:37:25;25.00;44.30
36690;DHT22;22676;51.120;3.702;2023-07-22T00:39:51;25.00;44.40
36690;DHT22;22676;51.120;3.702;2023-07-22T00:42:17;25.00;44.40
36690;DHT22;22676;51.120;3.702;2023-07-22T00:44:42;24.90;44.50
36690;DHT22;22676;51.120;3.702;2023-07-22T00:47:08;24.90;44.50
36690;DHT22;22676;51.120;3.702;2023-07-22T00:49:35;24.90;44.60
36690;DHT22;22676;51.120;3.702;2023-07-22T00:52:02;24.90;44.60
36690;DHT22;22676;51.120;3.702;2023-07-22T00:54:29;24.90;44.70
36690;DHT22;22676;51.120;3.702;2023-07-22T00:56:56;24.90;44.70
36690;DHT22;22676;51.120;3.702;2023-07-22T00:59:22;24.90;44.80
36690;DHT22;22676;51.120;3.702;2023-07-22T01:01:48;24.80;44.80
36690;DHT22;22676;51.120;3.702;2023-07-22T01:04:15;24.80;44.90
36690;DHT22;22676;51.120;3.702;2023-07-22T01:06:43;24.80;44.90
36690;DHT22;22676;51.120;3.702;2023-07-22T01:09:09;24.80;45.00
36690;DHT22;22676;51.120;3.702;2023-07-22T01:11:35;24.80;45.10
36690;DHT22;22676;51.120;3.702;2023-07-22T01:14:01;24.80;45.20
36690;DHT22;22676;51.120;3.702;2023-07-22T01:16:27;24.80;45.20
36690;DHT22;22676;51.120;3.702;2023-07-22T01:18:54;24.80;45.30
36690;DHT22;22676;51.120;3.702;2023-07-22T01:21:22;24.70;45.40
36690;DHT22;22676;51.120;3.702;2023-07-22T01:23:49;24.80;45.50
36690;DHT22;22676;51.120;3.702;2023-07-22T01:26:15;24.70;45.60
36690;DHT22;22676;51.120;3.702;2023-07-22T01:28:41;24.70;45.60
36690;DHT22;22676;51.120;3.702;2023-07-22T01:31:07;24.70;45.70
36690;DHT22;22676;51.120;3.702;2023-07-22T01:33:32;24.70;45.80
36690;DHT22;22676;51.120;3.702;2023-07-22T01:36:00;24.70;45.90
36690;DHT22;22676;51.120;3.702;2023-07-22T01:38:25;24.70;46.00
36690;DHT22;22676;51.120;3.702;2023-07-22T01:40:51;24.70;46.10
36690;DHT22;22676;51.120;3.702;2023-07-22T01:43:17;24.60;46.10
36690;DHT22;22676;51.120;3.702;2023-07-22T01:45:42;24.60;46.20
36690;DHT22;22676;51.120;3.702;2023-07-22T01:48:08;24.60;46.30
36690;DHT22;22676;51.120;3.702;2023-07-22T01:50:34;24.60;46.30
36690;DHT22;22676;51.120;3.702;2023-07-22T01:52:59;24.60;46.40
36690;DHT22;22676;51.120;3.702;2023-07-22T01:55:25;24.60;46.40
36690;DHT22;22676;51.120;3.702;2023-07-22T01:57:51;24.60;46.50
36690;DHT22;22676;51.120;3.702;2023-07-22T02:00:17;24.60;46.60
36690;DHT22;22676;51.120;3.702;2023-07-22T02:02:42;24.50;46.60
36690;DHT22;22676;51.120;3.702;2023-07-22T02:05:09;24.60;46.70
36690;DHT22;22676;51.120;3.702;2023-07-22T02:07:38;24.60;46.80
36690;DHT22;22676;51.120;3.702;2023-07-22T02:10:04;24.50;46.80
36690;DHT22;22676;51.120;3.702;2023-07-22T02:12:30;24.50;46.80
36690;DHT22;22676;51.120;3.702;2023-07-22T02:14:56;24.60;46.90
36690;DHT22;22676;51.120;3.702;2023-07-22T02:17:21;24.50;46.90
36690;DHT22;22676;51.120;3.702;2023-07-22T02:19:47;24.50;47.00
36690;DHT22;22676;51.120;3.702;2023-07-22T02:22:13;24.50;47.00
36690;DHT22;22676;51.120;3.702;2023-07-22T02:24:38;24.50;47.60
36690;DHT22;22676;51.120;3.702;2023-07-22T02:27:04;24.50;47.00
36690;DHT22;22676;51.120;3.702;2023-07-22T02:29:31;24.50;47.00
36690;DHT22;22676;51.120;3.702;2023-07-22T02:31:56;24.50;47.00
36690;DHT22;22676;51.120;3.702;2023-07-22T02:34:23;24.50;47.10
36690;DHT22;22676;51.120;3.702;2023-07-22T02:36:49;24.50;47.10
36690;DHT22;22676;51.120;3.702;2023-07-22T02:39:14;24.50;47.20
36690;DHT22;22676;51.120;3.702;2023-07-22T02:41:40;24.50;47.20
36690;DHT22;22676;51.120;3.702;2023-07-22T02:44:06;24.50;47.20
36690;DHT22;22676;51.120;3.702;2023-07-22T02:46:32;24.50;47.30
36690;DHT22;22676;51.120;3.702;2023-07-22T02:48:58;24.40;47.20
36690;DHT22;22676;51.120;3.702;2023-07-22T02:51:24;24.40;47.30
36690;DHT22;22676;51.120;3.702;2023-07-22T02:53:50;24.40;47.30
36690;DHT22;22676;51.120;3.702;2023-07-22T02:56:16;24.40;47.30
36690;DHT22;22676;51.120;3.702;2023-07-22T02:58:42;24.40;47.30
36690;DHT22;22676;51.120;3.702;2023-07-22T03:01:08;24.40;47.40
36690;DHT22;22676;51.120;3.702;2023-07-22T03:03:35;24.40;47.40
36690;DHT22;22676;51.120;3.702;2023-07-22T03:06:01;24.40;47.40
36690;DHT22;22676;51.120;3.702;2023-07-22T03:08:28;24.40;47.40
36690;DHT22;22676;51.120;3.702;2023-07-22T03:10:53;24.40;47.40
36690;DHT22;22676;51.120;3.702;2023-07-22T03:13:19;24.30;47.40
36690;DHT22;22676;51.120;3.702;2023-07-22T03:15:45;24.30;47.50
36690;DHT22;22676;51.120;3.702;2023-07-22T03:18:11;24.30;47.50
36690;DHT22;22676;51.120;3.702;2023-07-22T03:20:38;24.40;47.60
36690;DHT22;22676;51.120;3.702;2023-07-22T03:23:04;24.30;47.60
36690;DHT22;22676;51.120;3.702;2023-07-22T03:25:31;24.30;47.60
36690;DHT22;22676;51.120;3.702;2023-07-22T03:27:57;24.40;47.70
36690;DHT22;22676;51.120;3.702;2023-07-22T03:30:23;24.50;47.30
36690;DHT22;22676;51.120;3.702;2023-07-22T03:32:49;24.50;47.10
36690;DHT22;22676;51.120;3.702;2023-07-22T03:35:17;24.50;46.90
36690;DHT22;22676;51.120;3.702;2023-07-22T03:37:43;24.50;46.80
36690;DHT22;22676;51.120;3.702;2023-07-22T03:40:10;24.60;46.70
36690;DHT22;22676;51.120;3.702;2023-07-22T03:42:52;24.60;46.60
36690;DHT22;22676;51.120;3.702;2023-07-22T03:45:19;24.70;46.50
36690;DHT22;22676;51.120;3.702;2023-07-22T03:47:46;24.70;46.50
36690;DHT22;22676;51.120;3.702;2023-07-22T03:50:12;24.70;46.50
36690;DHT22;22676;51.120;3.702;2023-07-22T03:52:38;24.70;46.50
36690;DHT22;22676;51.120;3.702;2023-07-22T03:55:04;24.60;46.50
36690;DHT22;22676;51.120;3.702;2023-07-22T03:57:33;24.60;46.50
36690;DHT22;22676;51.120;3.702;2023-07-22T03:59:59;24.50;46.60
36690;DHT22;22676;51.120;3.702;2023-07-22T04:02:25;24.50;46.60
36690;DHT22;22676;51.120;3.702;2023-07-22T04:04:53;24.50;46.70
36690;DHT22;22676;51.120;3.702;2023-07-22T04:07:18;24.50;46.80
36690;DHT22;22676;51.120;3.702;2023-07-22T04:09:44;24.40;46.80
36690;DHT22;22676;51.120;3.702;2023-07-22T04:12:13;24.40;46.90
36690;DHT22;22676;51.120;3.702;2023-07-22T04:14:39;24.30;46.90
36690;DHT22;22676;51.120;3.702;2023-07-22T04:17:05;24.30;47.10
36690;DHT22;22676;51.120;3.702;2023-07-22T04:19:31;24.20;47.10
36690;DHT22;22676;51.120;3.702;2023-07-22T04:21:56;24.20;47.20
36690;DHT22;22676;51.120;3.702;2023-07-22T04:24:22;24.20;47.30
36690;DHT22;22676;51.120;3.702;2023-07-22T04:26:48;24.10;47.40
36690;DHT22;22676;51.120;3.702;2023-07-22T04:29:14;24.10;47.50
36690;DHT22;22676;51.120;3.702;2023-07-22T04:31:39;24.00;47.50
36690;DHT22;22676;51.120;3.702;2023-07-22T04:34:05;24.00;47.60
36690;DHT22;22676;51.120;3.702;2023-07-22T04:36:31;24.00;47.80
36690;DHT22;22676;51.120;3.702;2023-07-22T04:38:57;23.90;47.90
36690;DHT22;22676;51.120;3.702;2023-07-22T04:41:23;23.90;47.90
36690;DHT22;22676;51.120;3.702;2023-07-22T04:43:49;23.80;48.00
36690;DHT22;22676;51.120;3.702;2023-07-22T04:46:16;23.80;48.10
36690;DHT22;22676;51.120;3.702;2023-07-22T04:48:41;23.80;48.10
36690;DHT22;22676;51.120;3.702;2023-07-22T04:51:07;23.80;48.10
36690;DHT22;22676;51.120;3.702;2023-07-22T04:53:33;23.80;48.10
36690;DHT22;22676;51.120;3.702;2023-07-22T04:55:58;23.80;48.10
36690;DHT22;22676;51.120;3.702;2023-07-22T04:58:24;23.80;48.30
36690;DHT22;22676;51.120;3.702;2023-07-22T05:00:50;23.70;48.30
36690;DHT22;22676;51.120;3.702;2023-07-22T05:03:16;23.70;48.30
36690;DHT22;22676;51.120;3.702;2023-07-22T05:05:43;23.70;48.40
36690;DHT22;22676;51.120;3.702;2023-07-22T05:08:09;23.70;48.40
36690;DHT22;22676;51.120;3.702;2023-07-22T05:10:34;23.70;48.50
36690;DHT22;22676;51.120;3.702;2023-07-22T05:13:00;23.70;48.50
36690;DHT22;22676;51.120;3.702;2023-07-22T05:15:25;23.70;48.50
36690;DHT22;22676;51.120;3.702;2023-07-22T05:17:51;23.60;48.50
36690;DHT22;22676;51.120;3.702;2023-07-22T05:20:17;23.60;48.50
36690;DHT22;22676;51.120;3.702;2023-07-22T05:22:43;23.60;48.60
36690;DHT22;22676;51.120;3.702;2023-07-22T05:25:09;23.60;48.60
36690;DHT22;22676;51.120;3.702;2023-07-22T05:27:39;23.60;48.60
36690;DHT22;22676;51.120;3.702;2023-07-22T05:30:05;23.60;48.70
36690;DHT22;22676;51.120;3.702;2023-07-22T05:32:31;23.60;48.70
36690;DHT22;22676;51.120;3.702;2023-07-22T05:34:57;23.60;48.70
36690;DHT22;22676;51.120;3.702;2023-07-22T05:37:24;23.60;48.70
36690;DHT22;22676;51.120;3.702;2023-07-22T05:39:50;23.60;48.70
36690;DHT22;22676;51.120;3.702;2023-07-22T05:42:16;23.60;48.70
36690;DHT22;22676;51.120;3.702;2023-07-22T05:44:42;23.50;48.70
36690;DHT22;22676;51.120;3.702;2023-07-22T05:47:08;23.60;48.80
36690;DHT22;22676;51.120;3.702;2023-07-22T05:49:33;23.50;48.70
36690;DHT22;22676;51.120;3.702;2023-07-22T05:51:59;23.60;48.80
36690;DHT22;22676;51.120;3.702;2023-07-22T05:54:24;23.50;48.80
36690;DHT22;22676;51.120;3.702;2023-07-22T05:56:50;23.50;48.80
36690;DHT22;22676;51.120;3.702;2023-07-22T05:59:16;23.50;48.80
36690;DHT22;22676;51.120;3.702;2023-07-22T06:01:41;23.50;48.70
36690;DHT22;22676;51.120;3.702;2023-07-22T06:04:07;23.50;48.70
36690;DHT22;22676;51.120;3.702;2023-07-22T06:06:34;23.50;49.30
36690;DHT22;22676;51.120;3.702;2023-07-22T06:09:00;23.50;48.70
36690;DHT22;22676;51.120;3.702;2023-07-22T06:11:26;23.60;48.70
36690;DHT22;22676;51.120;3.702;2023-07-22T06:13:51;23.60;48.70
36690;DHT22;22676;51.120;3.702;2023-07-22T06:16:17;23.60;48.80
36690;DHT22;22676;51.120;3.702;2023-07-22T06:18:43;23.60;48.80
36690;DHT22;22676;51.120;3.702;2023-07-22T06:21:08;23.60;48.80
36690;DHT22;22676;51.120;3.702;2023-07-22T06:23:34;23.60;48.80
36690;DHT22;22676;51.120;3.702;2023-07-22T06:26:00;23.60;48.70
36690;DHT22;22676;51.120;3.702;2023-07-22T06:28:25;23.60;48.70
36690;DHT22;22676;51.120;3.702;2023-07-22T06:30:51;23.60;48.70
36690;DHT22;22676;51.120;3.702;2023-07-22T06:33:17;23.60;48.80
36690;DHT22;22676;51.120;3.702;2023-07-22T06:35:42;23.60;48.80
36690;DHT22;22676;51.120;3.702;2023-07-22T06:38:08;23.60;48.80
36690;DHT22;22676;51.120;3.702;2023-07-22T06:40:34;23.60;48.80
36690;DHT22;22676;51.120;3.702;2023-07-22T06:42:59;23.60;48.70
36690;DHT22;22676;51.120;3.702;2023-07-22T06:45:25;23.60;48.70
36690;DHT22;22676;51.120;3.702;2023-07-22T06:47:51;23.60;48.70
36690;DHT22;22676;51.120;3.702;2023-07-22T06:50:16;23.60;48.70
36690;DHT22;22676;51.120;3.702;2023-07-22T06:52:42;23.60;48.70
36690;DHT22;22676;51.120;3.702;2023-07-22T06:55:08;23.60;48.70
36690;DHT22;22676;51.120;3.702;2023-07-22T06:57:33;23.60;48.70
36690;DHT22;22676;51.120;3.702;2023-07-22T06:59:59;23.60;48.80
36690;DHT22;22676;51.120;3.702;2023-07-22T07:02:25;23.60;48.80
36690;DHT22;22676;51.120;3.702;2023-07-22T07:04:51;23.60;48.80
36690;DHT22;22676;51.120;3.702;2023-07-22T07:07:16;23.60;48.70
36690;DHT22;22676;51.120;3.702;2023-07-22T07:09:42;23.70;48.70
36690;DHT22;22676;51.120;3.702;2023-07-22T07:12:08;23.70;48.70
36690;DHT22;22676;51.120;3.702;2023-07-22T07:14:34;23.70;48.70
36690;DHT22;22676;51.120;3.702;2023-07-22T07:17:01;23.70;48.80
36690;DHT22;22676;51.120;3.702;2023-07-22T07:19:28;23.70;48.90
36690;DHT22;22676;51.120;3.702;2023-07-22T07:21:53;23.70;49.00
36690;DHT22;22676;51.120;3.702;2023-07-22T07:24:19;23.70;49.00
36690;DHT22;22676;51.120;3.702;2023-07-22T07:26:45;23.70;48.90
36690;DHT22;22676;51.120;3.702;2023-07-22T07:29:10;23.80;49.00
36690;DHT22;22676;51.120;3.702;2023-07-22T07:31:37;23.80;49.40
36690;DHT22;22676;51.120;3.702;2023-07-22T07:34:03;23.90;48.80
36690;DHT22;22676;51.120;3.702;2023-07-22T07:36:29;23.90;48.70
36690;DHT22;22676;51.120;3.702;2023-07-22T07:38:55;24.00;48.60
36690;DHT22;22676;51.120;3.702;2023-07-22T07:41:21;24.00;48.50
36690;DHT22;22676;51.120;3.702;2023-07-22T07:43:47;24.10;48.60
36690;DHT22;22676;51.120;3.702;2023-07-22T07:46:18;24.20;48.70
36690;DHT22;22676;51.120;3.702;2023-07-22T07:48:46;24.20;48.60
36690;DHT22;22676;51.120;3.702;2023-07-22T07:51:16;24.30;48.80
36690;DHT22;22676;51.120;3.702;2023-07-22T07:53:43;24.30;48.90
36690;DHT22;22676;51.120;3.702;2023-07-22T07:56:16;24.40;48.80
36690;DHT22;22676;51.120;3.702;2023-07-22T07:58:42;24.50;48.80
36690;DHT22;22676;51.120;3.702;2023-07-22T08:01:08;24.50;48.80
36690;DHT22;22676;51.120;3.702;2023-07-22T08:03:35;24.50;48.70
36690;DHT22;22676;51.120;3.702;2023-07-22T08:06:02;24.60;48.80
36690;DHT22;22676;51.120;3.702;2023-07-22T08:08:28;24.60;48.60
36690;DHT22;22676;51.120;3.702;2023-07-22T08:11:10;24.70;48.70
36690;DHT22;22676;51.120;3.702;2023-07-22T08:13:38;24.70;48.50
36690;DHT22;22676;51.120;3.702;2023-07-22T08:16:06;24.70;48.50
36690;DHT22;22676;51.120;3.702;2023-07-22T08:18:32;24.70;48.60
36690;DHT22;22676;51.120;3.702;2023-07-22T08:20:58;24.70;48.60
36690;DHT22;22676;51.120;3.702;2023-07-22T08:23:24;24.70;48.70
36690;DHT22;22676;51.120;3.702;2023-07-22T08:25:50;24.70;48.90
36690;DHT22;22676;51.120;3.702;2023-07-22T08:28:16;24.70;49.20
36690;DHT22;22676;51.120;3.702;2023-07-22T08:30:42;24.60;49.40
36690;DHT22;22676;51.120;3.702;2023-07-22T08:33:09;24.60;49.70
36690;DHT22;22676;51.120;3.702;2023-07-22T08:35:37;24.50;49.60
36690;DHT22;22676;51.120;3.702;2023-07-22T08:38:03;24.50;49.70
36690;DHT22;22676;51.120;3.702;2023-07-22T08:40:40;24.50;49.90
36690;DHT22;22676;51.120;3.702;2023-07-22T08:43:08;24.50;49.90
36690;DHT22;22676;51.120;3.702;2023-07-22T08:45:37;24.50;50.00
36690;DHT22;22676;51.120;3.702;2023-07-22T08:48:07;24.50;50.00
36690;DHT22;22676;51.120;3.702;2023-07-22T08:51:12;24.40;50.10
36690;DHT22;22676;51.120;3.702;2023-07-22T08:53:40;24.40;50.00
36690;DHT22;22676;51.120;3.702;2023-07-22T08:56:06;24.40;50.30
36690;DHT22;22676;51.120;3.702;2023-07-22T08:58:32;24.40;50.40
36690;DHT22;22676;51.120;3.702;2023-07-22T09:00:59;24.40;50.30
36690;DHT22;22676;51.120;3.702;2023-07-22T09:03:25;24.40;50.10
36690;DHT22;22676;51.120;3.702;2023-07-22T09:05:50;24.30;50.20
36690;DHT22;22676;51.120;3.702;2023-07-22T09:08:17;24.30;50.30
36690;DHT22;22676;51.120;3.702;2023-07-22T09:10:43;24.30;50.30
36690;DHT22;22676;51.120;3.702;2023-07-22T09:13:09;24.30;50.30
36690;DHT22;22676;51.120;3.702;2023-07-22T09:15:36;24.40;50.20
36690;DHT22;22676;51.120;3.702;2023-07-22T09:18:05;24.30;50.10
36690;DHT22;22676;51.120;3.702;2023-07-22T09:20:32;24.30;50.10
36690;DHT22;22676;51.120;3.702;2023-07-22T09:22:59;24.30;50.00
36690;DHT22;22676;51.120;3.702;2023-07-22T09:25:27;24.40;49.90
36690;DHT22;22676;51.120;3.702;2023-07-22T09:27:54;24.40;49.90
36690;DHT22;22676;51.120;3.702;2023-07-22T09:33:04;24.30;50.00
36690;DHT22;22676;51.120;3.702;2023-07-22T09:35:47;24.30;49.90
36690;DHT22;22676;51.120;3.702;2023-07-22T09:38:13;24.30;49.70
36690;DHT22;22676;51.120;3.702;2023-07-22T09:40:42;24.40;49.70
36690;DHT22;22676;51.120;3.702;2023-07-22T09:43:12;24.40;49.60
36690;DHT22;22676;51.120;3.702;2023-07-22T09:45:37;24.40;49.50
36690;DHT22;22676;51.120;3.702;2023-07-22T09:48:03;24.40;49.50
36690;DHT22;22676;51.120;3.702;2023-07-22T09:50:29;24.40;49.50
36690;DHT22;22676;51.120;3.702;2023-07-22T09:52:59;24.40;49.50
36690;DHT22;22676;51.120;3.702;2023-07-22T09:55:27;24.40;49.50
36690;DHT22;22676;51.120;3.702;2023-07-22T09:57:58;24.50;49.50
36690;DHT22;22676;51.120;3.702;2023-07-22T10:00:27;24.50;49.40
36690;DHT22;22676;51.120;3.702;2023-07-22T10:02:56;24.40;49.30
36690;DHT22;22676;51.120;3.702;2023-07-22T10:05:22;24.50;49.30
36690;DHT22;22676;51.120;3.702;2023-07-22T10:07:51;24.50;49.20
36690;DHT22;22676;51.120;3.702;2023-07-22T10:10:22;24.50;49.00
36690;DHT22;22676;51.120;3.702;2023-07-22T10:12:49;24.50;49.10
36690;DHT22;22676;51.120;3.702;2023-07-22T10:15:15;24.50;49.10
36690;DHT22;22676;51.120;3.702;2023-07-22T10:17:43;24.50;49.20
36690;DHT22;22676;51.120;3.702;2023-07-22T10:20:10;24.50;49.00
36690;DHT22;22676;51.120;3.702;2023-07-22T10:22:44;24.50;49.00
36690;DHT22;22676;51.120;3.702;2023-07-22T10:25:12;24.50;48.80
36690;DHT22;22676;51.120;3.702;2023-07-22T10:27:39;24.60;48.80
36690;DHT22;22676;51.120;3.702;2023-07-22T10:30:11;24.60;48.70
36690;DHT22;22676;51.120;3.702;2023-07-22T10:32:39;24.70;48.60
36690;DHT22;22676;51.120;3.702;2023-07-22T10:35:11;24.70;48.50
36690;DHT22;22676;51.120;3.702;2023-07-22T10:37:38;24.70;48.40
36690;DHT22;22676;51.120;3.702;2023-07-22T10:40:26;24.70;48.40
36690;DHT22;22676;51.120;3.702;2023-07-22T10:43:00;24.70;48.20
36690;DHT22;22676;51.120;3.702;2023-07-22T10:45:26;24.80;47.80
36690;DHT22;22676;51.120;3.702;2023-07-22T10:48:07;24.80;47.40
36690;DHT22;22676;51.120;3.702;2023-07-22T10:53:31;24.80;46.80
36690;DHT22;22676;51.120;3.702;2023-07-22T10:58:31;24.90;46.70
36690;DHT22;22676;51.120;3.702;2023-07-22T11:12:09;25.00;46.50
36690;DHT22;22676;51.120;3.702;2023-07-22T11:14:40;25.00;46.50
36690;DHT22;22676;51.120;3.702;2023-07-22T11:17:10;25.00;46.60
36690;DHT22;22676;51.120;3.702;2023-07-22T11:19:36;25.00;46.20
36690;DHT22;22676;51.120;3.702;2023-07-22T11:22:02;25.00;46.20
36690;DHT22;22676;51.120;3.702;2023-07-22T11:24:28;25.00;46.40
36690;DHT22;22676;51.120;3.702;2023-07-22T11:26:54;25.00;46.80
36690;DHT22;22676;51.120;3.702;2023-07-22T11:29:20;25.00;46.90
36690;DHT22;22676;51.120;3.702;2023-07-22T11:31:48;25.00;47.10
36690;DHT22;22676;51.120;3.702;2023-07-22T11:34:15;25.00;47.10
36690;DHT22;22676;51.120;3.702;2023-07-22T11:36:42;25.00;47.30
36690;DHT22;22676;51.120;3.702;2023-07-22T11:39:12;25.00;47.40
36690;DHT22;22676;51.120;3.702;2023-07-22T11:41:39;25.10;47.60
36690;DHT22;22676;51.120;3.702;2023-07-22T11:44:07;25.00;47.60
36690;DHT22;22676;51.120;3.702;2023-07-22T11:47:00;25.00;47.80
36690;DHT22;22676;51.120;3.702;2023-07-22T11:49:31;25.00;47.90
36690;DHT22;22676;51.120;3.702;2023-07-22T11:54:24;25.00;48.00
36690;DHT22;22676;51.120;3.702;2023-07-22T11:56:50;25.00;48.00
36690;DHT22;22676;51.120;3.702;2023-07-22T11:59:15;25.00;48.00
36690;DHT22;22676;51.120;3.702;2023-07-22T12:01:44;25.00;48.30
36690;DHT22;22676;51.120;3.702;2023-07-22T12:04:12;25.00;48.40
36690;DHT22;22676;51.120;3.702;2023-07-22T12:06:38;24.90;48.60
36690;DHT22;22676;51.120;3.702;2023-07-22T12:09:04;24.90;48.70
36690;DHT22;22676;51.120;3.702;2023-07-22T12:11:33;24.90;48.80
36690;DHT22;22676;51.120;3.702;2023-07-22T12:14:07;24.90;48.90
36690;DHT22;22676;51.120;3.702;2023-07-22T12:16:35;24.90;49.10
36690;DHT22;22676;51.120;3.702;2023-07-22T12:19:02;24.90;49.20
36690;DHT22;22676;51.120;3.702;2023-07-22T12:21:28;24.80;49.20
36690;DHT22;22676;51.120;3.702;2023-07-22T12:23:54;24.80;49.20
36690;DHT22;22676;51.120;3.702;2023-07-22T12:26:20;24.80;49.30
36690;DHT22;22676;51.120;3.702;2023-07-22T12:28:46;24.80;49.40
36690;DHT22;22676;51.120;3.702;2023-07-22T12:31:12;24.80;49.50
36690;DHT22;22676;51.120;3.702;2023-07-22T12:33:37;24.80;49.60
36690;DHT22;22676;51.120;3.702;2023-07-22T12:36:03;24.80;49.50
36690;DHT22;22676;51.120;3.702;2023-07-22T12:38:30;24.80;49.60
36690;DHT22;22676;51.120;3.702;2023-07-22T12:40:56;24.80;49.70
36690;DHT22;22676;51.120;3.702;2023-07-22T12:43:22;24.80;49.80
36690;DHT22;22676;51.120;3.702;2023-07-22T12:45:48;24.80;49.80
36690;DHT22;22676;51.120;3.702;2023-07-22T12:48:13;24.80;49.80
36690;DHT22;22676;51.120;3.702;2023-07-22T12:50:39;24.80;49.70
36690;DHT22;22676;51.120;3.702;2023-07-22T12:53:05;24.80;49.80
36690;DHT22;22676;51.120;3.702;2023-07-22T12:55:30;24.80;49.90
36690;DHT22;22676;51.120;3.702;2023-07-22T12:57:56;24.80;50.00
36690;DHT22;22676;51.120;3.702;2023-07-22T13:00:22;24.80;50.10
36690;DHT22;22676;51.120;3.702;2023-07-22T13:02:48;24.80;50.20
36690;DHT22;22676;51.120;3.702;2023-07-22T13:05:14;24.80;50.20
36690;DHT22;22676;51.120;3.702;2023-07-22T13:07:40;24.80;50.30
36690;DHT22;22676;51.120;3.702;2023-07-22T13:10:06;24.80;50.30
36690;DHT22;22676;51.120;3.702;2023-07-22T13:12:36;24.80;50.30
36690;DHT22;22676;51.120;3.702;2023-07-22T13:15:03;24.80;50.30
36690;DHT22;22676;51.120;3.702;2023-07-22T13:17:28;24.80;50.40
36690;DHT22;22676;51.120;3.702;2023-07-22T13:19:54;24.80;50.50
36690;DHT22;22676;51.120;3.702;2023-07-22T13:22:20;24.80;50.40
36690;DHT22;22676;51.120;3.702;2023-07-22T13:24:45;24.80;50.60
36690;DHT22;22676;51.120;3.702;2023-07-22T13:27:11;24.80;50.70
36690;DHT22;22676;51.120;3.702;2023-07-22T13:29:37;24.80;50.60
36690;DHT22;22676;51.120;3.702;2023-07-22T13:32:02;24.80;50.70
36690;DHT22;22676;51.120;3.702;2023-07-22T13:34:30;24.80;50.70
36690;DHT22;22676;51.120;3.702;2023-07-22T13:36:56;24.80;50.70
36690;DHT22;22676;51.120;3.702;2023-07-22T13:39:21;24.80;50.70
36690;DHT22;22676;51.120;3.702;2023-07-22T13:41:47;24.80;50.80
36690;DHT22;22676;51.120;3.702;2023-07-22T13:44:14;24.80;50.90
36690;DHT22;22676;51.120;3.702;2023-07-22T13:46:39;24.80;51.00
36690;DHT22;22676;51.120;3.702;2023-07-22T13:49:05;24.80;51.40
36690;DHT22;22676;51.120;3.702;2023-07-22T13:51:30;24.80;51.40
36690;DHT22;22676;51.120;3.702;2023-07-22T13:53:56;24.80;51.30
36690;DHT22;22676;51.120;3.702;2023-07-22T13:56:23;24.80;51.20
36690;DHT22;22676;51.120;3.702;2023-07-22T13:58:49;24.80;51.30
36690;DHT22;22676;51.120;3.702;2023-07-22T14:01:15;24.90;51.40
36690;DHT22;22676;51.120;3.702;2023-07-22T14:03:40;24.90;51.30
36690;DHT22;22676;51.120;3.702;2023-07-22T14:06:06;24.90;51.50
36690;DHT22;22676;51.120;3.702;2023-07-22T14:08:33;24.90;51.50
36690;DHT22;22676;51.120;3.702;2023-07-22T14:10:59;24.90;51.60
36690;DHT22;22676;51.120;3.702;2023-07-22T14:13:25;24.90;51.70
36690;DHT22;22676;51.120;3.702;2023-07-22T14:15:50;25.00;51.70
36690;DHT22;22676;51.120;3.702;2023-07-22T14:18:16;25.00;51.60
36690;DHT22;22676;51.120;3.702;2023-07-22T14:20:43;25.10;51.50
36690;DHT22;22676;51.120;3.702;2023-07-22T14:23:10;25.20;51.60
36690;DHT22;22676;51.120;3.702;2023-07-22T14:25:35;25.20;51.30
36690;DHT22;22676;51.120;3.702;2023-07-22T14:28:01;25.30;51.30
36690;DHT22;22676;51.120;3.702;2023-07-22T14:30:26;25.30;51.20
36690;DHT22;22676;51.120;3.702;2023-07-22T14:32:52;25.40;51.10
36690;DHT22;22676;51.120;3.702;2023-07-22T14:35:18;25.50;50.90
36690;DHT22;22676;51.120;3.702;2023-07-22T14:37:44;25.50;51.20
36690;DHT22;22676;51.120;3.702;2023-07-22T14:40:10;25.60;50.70
36690;DHT22;22676;51.120;3.702;2023-07-22T14:42:36;25.60;50.50
36690;DHT22;22676;51.120;3.702;2023-07-22T14:45:02;25.70;50.30
36690;DHT22;22676;51.120;3.702;2023-07-22T14:47:28;25.80;50.30
36690;DHT22;22676;51.120;3.702;2023-07-22T14:49:54;25.90;50.30
36690;DHT22;22676;51.120;3.702;2023-07-22T14:52:19;25.90;50.10
36690;DHT22;22676;51.120;3.702;2023-07-22T14:54:45;25.90;49.90
36690;DHT22;22676;51.120;3.702;2023-07-22T14:57:11;26.00;49.80
36690;DHT22;22676;51.120;3.702;2023-07-22T14:59:36;26.00;50.00
36690;DHT22;22676;51.120;3.702;2023-07-22T15:02:02;26.00;49.70
36690;DHT22;22676;51.120;3.702;2023-07-22T15:04:28;26.10;49.60
36690;DHT22;22676;51.120;3.702;2023-07-22T15:06:53;26.10;49.50
36690;DHT22;22676;51.120;3.702;2023-07-22T15:09:19;26.20;49.40
36690;DHT22;22676;51.120;3.702;2023-07-22T15:11:46;26.20;49.30
36690;DHT22;22676;51.120;3.702;2023-07-22T15:14:11;26.20;49.20
36690;DHT22;22676;51.120;3.702;2023-07-22T15:16:37;26.30;49.00
36690;DHT22;22676;51.120;3.702;2023-07-22T15:19:03;26.30;49.60
36690;DHT22;22676;51.120;3.702;2023-07-22T15:21:28;26.30;48.90
36690;DHT22;22676;51.120;3.702;2023-07-22T15:23:54;26.30;48.70
36690;DHT22;22676;51.120;3.702;2023-07-22T15:26:20;26.30;48.50
36690;DHT22;22676;51.120;3.702;2023-07-22T15:28:46;26.30;48.50
36690;DHT22;22676;51.120;3.702;2023-07-22T15:31:12;26.20;48.60
36690;DHT22;22676;51.120;3.702;2023-07-22T15:33:38;26.10;48.50
36690;DHT22;22676;51.120;3.702;2023-07-22T15:36:04;26.10;48.60
36690;DHT22;22676;51.120;3.702;2023-07-22T15:38:29;26.00;48.50
36690;DHT22;22676;51.120;3.702;2023-07-22T15:40:56;26.00;48.70
36690;DHT22;22676;51.120;3.702;2023-07-22T15:43:22;26.00;48.80
36690;DHT22;22676;51.120;3.702;2023-07-22T15:45:48;25.90;48.80
36690;DHT22;22676;51.120;3.702;2023-07-22T15:48:14;25.80;48.60